Wickett, Texas
Current Conditions -  °F | °C
As of 8:53 PM on Sunday 21 Dec 2014 (Local Time) from KINK Reporting Station
Clear Clear  
Wind Chill: 60°   Ceiling: Unl
Heat Index: 60°   Visibility: 10mi
Dew Point: 23°   Wind: 18mph
Humidity: 24%   Direction: 260°W
Pressure: 29.73"   Gusts: 29mph
Location:  31.57°N, 103°W
Report Text: KINK 220253Z AUTO 26016G25KT 10SM CLR 16/M05 A2973 RMK AO2 SLP054 T01561050 50004
Loading
Personal Weather Stations






























Interactive Weather Map New forecast layout! Learn more

10-Day Weather Forecast

Advertisements
Track Severe Weather on mobile